sensor_id;sensor_type;location;lat;lon;timestamp;P1;durP1;ratioP1;P2;durP2;ratioP2
13204;SDS011;6667;52.634;9.226;2022-09-12T06:56:13;16.63;;;9.87;;
13204;SDS011;6667;52.634;9.226;2022-09-12T06:58:41;14.50;;;8.93;;
13204;SDS011;6667;52.634;9.226;2022-09-12T07:01:09;14.87;;;9.33;;
13204;SDS011;6667;52.634;9.226;2022-09-12T07:03:37;19.43;;;10.67;;
13204;SDS011;6667;52.634;9.226;2022-09-12T07:06:05;17.17;;;10.23;;
13204;SDS011;6667;52.634;9.226;2022-09-12T07:08:34;13.70;;;10.20;;
13204;SDS011;6667;52.634;9.226;2022-09-12T07:11:06;17.83;;;10.87;;
13204;SDS011;6667;52.634;9.226;2022-09-12T07:13:36;13.33;;;9.97;;
13204;SDS011;6667;52.634;9.226;2022-09-12T07:16:03;17.53;;;11.30;;
13204;SDS011;6667;52.634;9.226;2022-09-12T07:18:31;15.40;;;11.10;;
13204;SDS011;6667;52.634;9.226;2022-09-12T07:20:58;14.83;;;9.83;;
13204;SDS011;6667;52.634;9.226;2022-09-12T07:23:25;17.67;;;10.60;;
13204;SDS011;6667;52.634;9.226;2022-09-12T07:25:52;16.70;;;10.63;;
13204;SDS011;6667;52.634;9.226;2022-09-12T07:28:21;15.03;;;10.20;;
13204;SDS011;6667;52.634;9.226;2022-09-12T07:30:49;14.87;;;11.57;;
13204;SDS011;6667;52.634;9.226;2022-09-12T07:33:17;15.87;;;11.33;;
13204;SDS011;6667;52.634;9.226;2022-09-12T07:35:44;15.63;;;11.07;;
13204;SDS011;6667;52.634;9.226;2022-09-12T07:38:11;17.00;;;11.07;;
13204;SDS011;6667;52.634;9.226;2022-09-12T07:40:37;20.30;;;12.77;;
13204;SDS011;6667;52.634;9.226;2022-09-12T07:43:04;17.57;;;11.23;;
13204;SDS011;6667;52.634;9.226;2022-09-12T07:45:31;15.23;;;10.20;;
13204;SDS011;6667;52.634;9.226;2022-09-12T07:47:59;13.77;;;10.00;;
13204;SDS011;6667;52.634;9.226;2022-09-12T07:50:25;14.00;;;10.20;;
13204;SDS011;6667;52.634;9.226;2022-09-12T07:52:52;13.43;;;9.90;;
13204;SDS011;6667;52.634;9.226;2022-09-12T07:55:19;15.17;;;10.80;;
13204;SDS011;6667;52.634;9.226;2022-09-12T07:57:47;15.67;;;10.73;;
13204;SDS011;6667;52.634;9.226;2022-09-12T08:00:14;16.17;;;10.40;;
13204;SDS011;6667;52.634;9.226;2022-09-12T08:02:41;14.80;;;10.65;;
13204;SDS011;6667;52.634;9.226;2022-09-12T08:05:09;15.07;;;10.52;;
13204;SDS011;6667;52.634;9.226;2022-09-12T08:07:36;16.58;;;10.13;;
13204;SDS011;6667;52.634;9.226;2022-09-12T08:10:03;12.48;;;9.02;;
13204;SDS011;6667;52.634;9.226;2022-09-12T08:12:30;12.40;;;9.52;;
13204;SDS011;6667;52.634;9.226;2022-09-12T08:14:58;11.18;;;9.73;;
13204;SDS011;6667;52.634;9.226;2022-09-12T08:17:25;12.07;;;9.25;;
13204;SDS011;6667;52.634;9.226;2022-09-12T08:19:52;11.50;;;8.55;;
13204;SDS011;6667;52.634;9.226;2022-09-12T08:22:20;11.98;;;8.32;;
13204;SDS011;6667;52.634;9.226;2022-09-12T08:24:48;13.25;;;8.45;;
13204;SDS011;6667;52.634;9.226;2022-09-12T08:27:15;12.75;;;8.50;;
13204;SDS011;6667;52.634;9.226;2022-09-12T08:29:41;10.70;;;7.32;;
13204;SDS011;6667;52.634;9.226;2022-09-12T08:32:08;13.52;;;8.25;;
13204;SDS011;6667;52.634;9.226;2022-09-12T08:34:34;10.93;;;7.70;;
13204;SDS011;6667;52.634;9.226;2022-09-12T08:37:01;9.20;;;7.03;;
13204;SDS011;6667;52.634;9.226;2022-09-12T08:39:29;7.80;;;6.40;;
13204;SDS011;6667;52.634;9.226;2022-09-12T08:41:57;11.75;;;7.55;;
13204;SDS011;6667;52.634;9.226;2022-09-12T08:44:37;7.38;;;6.25;;
13204;SDS011;6667;52.634;9.226;2022-09-12T08:47:16;8.73;;;5.35;;
13204;SDS011;6667;52.634;9.226;2022-09-12T08:49:54;7.18;;;5.60;;
13204;SDS011;6667;52.634;9.226;2022-09-12T08:52:27;9.30;;;6.65;;
13204;SDS011;6667;52.634;9.226;2022-09-12T08:55:00;6.88;;;5.45;;
13204;SDS011;6667;52.634;9.226;2022-09-12T08:57:31;6.20;;;4.90;;
13204;SDS011;6667;52.634;9.226;2022-09-12T08:59:58;5.55;;;4.82;;
13204;SDS011;6667;52.634;9.226;2022-09-12T09:02:36;5.55;;;4.60;;
13204;SDS011;6667;52.634;9.226;2022-09-12T09:05:23;4.95;;;4.45;;
13204;SDS011;6667;52.634;9.226;2022-09-12T09:08:05;6.05;;;4.20;;
13204;SDS011;6667;52.634;9.226;2022-09-12T09:10:46;4.97;;;4.03;;
13204;SDS011;6667;52.634;9.226;2022-09-12T09:13:20;6.15;;;4.22;;
13204;SDS011;6667;52.634;9.226;2022-09-12T09:16:14;6.03;;;4.47;;
13204;SDS011;6667;52.634;9.226;2022-09-12T09:18:47;5.07;;;4.10;;
13204;SDS011;6667;52.634;9.226;2022-09-12T09:21:19;5.53;;;4.05;;
13204;SDS011;6667;52.634;9.226;2022-09-12T09:23:49;6.47;;;4.43;;
13204;SDS011;6667;52.634;9.226;2022-09-12T09:26:22;6.80;;;4.10;;
13204;SDS011;6667;52.634;9.226;2022-09-12T09:28:54;4.35;;;3.67;;
13204;SDS011;6667;52.634;9.226;2022-09-12T09:31:25;5.35;;;3.55;;
13204;SDS011;6667;52.634;9.226;2022-09-12T09:33:57;5.50;;;3.40;;
13204;SDS011;6667;52.634;9.226;2022-09-12T09:36:28;5.20;;;3.25;;
13204;SDS011;6667;52.634;9.226;2022-09-12T09:39:03;5.45;;;3.63;;
13204;SDS011;6667;52.634;9.226;2022-09-12T09:41:39;4.85;;;3.45;;
13204;SDS011;6667;52.634;9.226;2022-09-12T09:44:14;4.30;;;3.40;;
13204;SDS011;6667;52.634;9.226;2022-09-12T09:46:41;4.35;;;3.28;;
13204;SDS011;6667;52.634;9.226;2022-09-12T09:49:08;5.40;;;3.40;;
13204;SDS011;6667;52.634;9.226;2022-09-12T09:51:39;7.72;;;2.95;;
13204;SDS011;6667;52.634;9.226;2022-09-12T09:54:09;3.67;;;2.78;;
13204;SDS011;6667;52.634;9.226;2022-09-12T09:56:44;4.80;;;3.10;;
13204;SDS011;6667;52.634;9.226;2022-09-12T09:59:12;5.28;;;3.00;;
13204;SDS011;6667;52.634;9.226;2022-09-12T10:01:45;7.47;;;3.10;;
13204;SDS011;6667;52.634;9.226;2022-09-12T10:04:16;3.17;;;2.80;;
13204;SDS011;6667;52.634;9.226;2022-09-12T10:06:44;3.38;;;2.75;;
13204;SDS011;6667;52.634;9.226;2022-09-12T10:09:22;4.55;;;2.78;;
13204;SDS011;6667;52.634;9.226;2022-09-12T10:11:52;5.10;;;2.83;;
13204;SDS011;6667;52.634;9.226;2022-09-12T10:14:27;4.97;;;2.90;;
13204;SDS011;6667;52.634;9.226;2022-09-12T10:16:59;5.50;;;3.00;;
13204;SDS011;6667;52.634;9.226;2022-09-12T10:19:34;5.55;;;2.67;;
13204;SDS011;6667;52.634;9.226;2022-09-12T10:22:02;2.75;;;2.50;;
13204;SDS011;6667;52.634;9.226;2022-09-12T10:24:31;4.35;;;3.58;;
13204;SDS011;6667;52.634;9.226;2022-09-12T10:27:07;5.60;;;3.08;;
13204;SDS011;6667;52.634;9.226;2022-09-12T10:29:39;5.30;;;3.22;;
13204;SDS011;6667;52.634;9.226;2022-09-12T10:32:10;2.83;;;2.53;;
13204;SDS011;6667;52.634;9.226;2022-09-12T10:34:44;3.70;;;3.05;;
13204;SDS011;6667;52.634;9.226;2022-09-12T10:37:15;4.65;;;3.30;;
13204;SDS011;6667;52.634;9.226;2022-09-12T10:39:48;3.65;;;2.42;;
13204;SDS011;6667;52.634;9.226;2022-09-12T10:45:18;5.32;;;2.65;;
13204;SDS011;6667;52.634;9.226;2022-09-12T10:47:46;2.80;;;2.45;;
13204;SDS011;6667;52.634;9.226;2022-09-12T10:53:15;2.95;;;2.50;;
13204;SDS011;6667;52.634;9.226;2022-09-12T10:55:51;2.92;;;2.58;;
13204;SDS011;6667;52.634;9.226;2022-09-12T10:58:32;2.47;;;2.22;;
13204;SDS011;6667;52.634;9.226;2022-09-12T11:01:05;3.08;;;2.70;;
13204;SDS011;6667;52.634;9.226;2022-09-12T11:03:49;3.70;;;2.95;;
13204;SDS011;6667;52.634;9.226;2022-09-12T11:06:29;4.13;;;2.30;;
13204;SDS011;6667;52.634;9.226;2022-09-12T11:09:03;4.40;;;2.67;;
13204;SDS011;6667;52.634;9.226;2022-09-12T11:11:41;2.90;;;2.10;;
13204;SDS011;6667;52.634;9.226;2022-09-12T11:14:19;4.10;;;2.78;;
13204;SDS011;6667;52.634;9.226;2022-09-12T11:16:54;2.60;;;2.20;;
13204;SDS011;6667;52.634;9.226;2022-09-12T11:19:36;2.58;;;2.38;;
13204;SDS011;6667;52.634;9.226;2022-09-12T11:22:18;2.90;;;2.60;;
13204;SDS011;6667;52.634;9.226;2022-09-12T11:25:02;2.90;;;2.22;;
13204;SDS011;6667;52.634;9.226;2022-09-12T11:27:40;16.85;;;2.45;;
13204;SDS011;6667;52.634;9.226;2022-09-12T11:30:20;3.13;;;2.70;;
13204;SDS011;6667;52.634;9.226;2022-09-12T11:32:50;3.58;;;2.45;;
13204;SDS011;6667;52.634;9.226;2022-09-12T11:35:30;5.10;;;2.60;;
13204;SDS011;6667;52.634;9.226;2022-09-12T11:38:05;6.65;;;2.65;;
13204;SDS011;6667;52.634;9.226;2022-09-12T11:41:08;3.42;;;2.63;;
13204;SDS011;6667;52.634;9.226;2022-09-12T11:43:42;5.82;;;2.97;;
13204;SDS011;6667;52.634;9.226;2022-09-12T11:46:18;4.13;;;2.65;;
13204;SDS011;6667;52.634;9.226;2022-09-12T11:48:50;4.15;;;3.03;;
13204;SDS011;6667;52.634;9.226;2022-09-12T11:51:23;3.83;;;2.50;;
13204;SDS011;6667;52.634;9.226;2022-09-12T11:53:57;3.05;;;2.53;;
13204;SDS011;6667;52.634;9.226;2022-09-12T11:56:27;4.43;;;2.70;;
13204;SDS011;6667;52.634;9.226;2022-09-12T11:58:56;2.67;;;2.17;;
13204;SDS011;6667;52.634;9.226;2022-09-12T12:01:30;2.67;;;2.40;;
13204;SDS011;6667;52.634;9.226;2022-09-12T12:04:00;2.75;;;2.30;;
13204;SDS011;6667;52.634;9.226;2022-09-12T12:06:35;3.30;;;2.58;;
13204;SDS011;6667;52.634;9.226;2022-09-12T12:09:11;2.65;;;2.30;;
13204;SDS011;6667;52.634;9.226;2022-09-12T12:11:39;3.75;;;2.40;;
13204;SDS011;6667;52.634;9.226;2022-09-12T12:14:12;1.88;;;1.77;;
13204;SDS011;6667;52.634;9.226;2022-09-12T12:16:43;2.45;;;2.17;;
13204;SDS011;6667;52.634;9.226;2022-09-12T12:19:25;2.95;;;2.00;;
13204;SDS011;6667;52.634;9.226;2022-09-12T12:22:04;2.92;;;2.35;;
13204;SDS011;6667;52.634;9.226;2022-09-12T12:24:33;2.78;;;2.33;;
13204;SDS011;6667;52.634;9.226;2022-09-12T12:27:00;2.72;;;1.90;;
13204;SDS011;6667;52.634;9.226;2022-09-12T12:29:43;2.05;;;1.83;;
13204;SDS011;6667;52.634;9.226;2022-09-12T12:32:21;3.72;;;2.00;;
13204;SDS011;6667;52.634;9.226;2022-09-12T12:34:50;2.92;;;2.05;;
13204;SDS011;6667;52.634;9.226;2022-09-12T12:37:49;3.00;;;2.05;;
13204;SDS011;6667;52.634;9.226;2022-09-12T12:40:21;2.10;;;1.52;;
13204;SDS011;6667;52.634;9.226;2022-09-12T12:43:00;2.22;;;1.98;;
13204;SDS011;6667;52.634;9.226;2022-09-12T12:45:45;3.25;;;2.42;;
13204;SDS011;6667;52.634;9.226;2022-09-12T12:48:13;2.08;;;1.85;;
13204;SDS011;6667;52.634;9.226;2022-09-12T12:50:44;3.25;;;1.77;;
13204;SDS011;6667;52.634;9.226;2022-09-12T12:53:16;3.22;;;1.70;;
13204;SDS011;6667;52.634;9.226;2022-09-12T12:55:47;2.13;;;1.80;;
13204;SDS011;6667;52.634;9.226;2022-09-12T12:58:27;1.95;;;1.40;;
13204;SDS011;6667;52.634;9.226;2022-09-12T13:01:02;2.28;;;1.70;;
13204;SDS011;6667;52.634;9.226;2022-09-12T13:03:35;3.40;;;1.58;;
13204;SDS011;6667;52.634;9.226;2022-09-12T13:06:04;2.45;;;1.45;;
13204;SDS011;6667;52.634;9.226;2022-09-12T13:08:37;1.92;;;1.63;;
13204;SDS011;6667;52.634;9.226;2022-09-12T13:11:09;1.55;;;1.45;;
13204;SDS011;6667;52.634;9.226;2022-09-12T13:13:41;1.10;;;1.00;;
13204;SDS011;6667;52.634;9.226;2022-09-12T13:16:27;1.88;;;1.60;;
13204;SDS011;6667;52.634;9.226;2022-09-12T13:18:55;2.95;;;1.83;;
13204;SDS011;6667;52.634;9.226;2022-09-12T13:21:26;2.33;;;1.98;;
13204;SDS011;6667;52.634;9.226;2022-09-12T13:24:01;1.75;;;1.65;;
13204;SDS011;6667;52.634;9.226;2022-09-12T13:26:32;2.45;;;1.58;;
13204;SDS011;6667;52.634;9.226;2022-09-12T13:29:09;2.05;;;1.88;;
13204;SDS011;6667;52.634;9.226;2022-09-12T13:31:37;3.28;;;1.90;;
13204;SDS011;6667;52.634;9.226;2022-09-12T13:34:04;3.67;;;1.90;;
13204;SDS011;6667;52.634;9.226;2022-09-12T13:36:54;4.15;;;1.73;;
13204;SDS011;6667;52.634;9.226;2022-09-12T13:39:44;1.83;;;1.30;;
13204;SDS011;6667;52.634;9.226;2022-09-12T13:42:24;2.15;;;1.70;;
13204;SDS011;6667;52.634;9.226;2022-09-12T13:45:03;2.40;;;1.67;;
13204;SDS011;6667;52.634;9.226;2022-09-12T13:47:35;2.50;;;1.30;;
13204;SDS011;6667;52.634;9.226;2022-09-12T13:50:05;1.70;;;1.60;;
13204;SDS011;6667;52.634;9.226;2022-09-12T13:52:34;2.70;;;1.52;;
13204;SDS011;6667;52.634;9.226;2022-09-12T13:55:06;2.90;;;1.70;;
13204;SDS011;6667;52.634;9.226;2022-09-12T13:57:43;1.48;;;1.30;;
13204;SDS011;6667;52.634;9.226;2022-09-12T14:00:11;2.28;;;1.70;;
13204;SDS011;6667;52.634;9.226;2022-09-12T14:02:43;2.20;;;2.00;;
13204;SDS011;6667;52.634;9.226;2022-09-12T14:05:11;2.97;;;1.80;;
13204;SDS011;6667;52.634;9.226;2022-09-12T14:07:48;1.73;;;1.48;;
13204;SDS011;6667;52.634;9.226;2022-09-12T14:10:22;1.58;;;1.48;;
13204;SDS011;6667;52.634;9.226;2022-09-12T14:12:55;1.90;;;1.58;;
13204;SDS011;6667;52.634;9.226;2022-09-12T14:15:25;1.95;;;1.30;;
13204;SDS011;6667;52.634;9.226;2022-09-12T14:17:54;6.40;;;1.45;;
13204;SDS011;6667;52.634;9.226;2022-09-12T14:20:25;1.40;;;1.30;;
13204;SDS011;6667;52.634;9.226;2022-09-12T14:22:57;1.65;;;1.55;;
13204;SDS011;6667;52.634;9.226;2022-09-12T14:25:27;4.50;;;1.50;;
13204;SDS011;6667;52.634;9.226;2022-09-12T14:28:01;1.60;;;1.33;;
13204;SDS011;6667;52.634;9.226;2022-09-12T14:30:28;1.92;;;1.73;;
13204;SDS011;6667;52.634;9.226;2022-09-12T14:36:06;4.10;;;1.63;;
13204;SDS011;6667;52.634;9.226;2022-09-12T14:38:35;3.13;;;2.10;;
13204;SDS011;6667;52.634;9.226;2022-09-12T14:41:07;3.25;;;1.75;;
13204;SDS011;6667;52.634;9.226;2022-09-12T14:43:35;1.98;;;1.60;;
13204;SDS011;6667;52.634;9.226;2022-09-12T14:46:04;3.50;;;1.30;;
13204;SDS011;6667;52.634;9.226;2022-09-12T14:48:41;3.72;;;1.48;;
13204;SDS011;6667;52.634;9.226;2022-09-12T14:51:15;1.50;;;1.40;;
13204;SDS011;6667;52.634;9.226;2022-09-12T14:53:46;2.10;;;1.95;;
13204;SDS011;6667;52.634;9.226;2022-09-12T14:56:15;1.70;;;1.60;;
13204;SDS011;6667;52.634;9.226;2022-09-12T14:58:42;2.88;;;1.52;;
13204;SDS011;6667;52.634;9.226;2022-09-12T15:01:22;2.38;;;1.52;;
13204;SDS011;6667;52.634;9.226;2022-09-12T15:03:50;2.78;;;1.83;;
13204;SDS011;6667;52.634;9.226;2022-09-12T15:06:20;2.53;;;1.40;;
13204;SDS011;6667;52.634;9.226;2022-09-12T15:08:51;2.55;;;1.45;;
13204;SDS011;6667;52.634;9.226;2022-09-12T15:11:20;1.65;;;1.55;;
13204;SDS011;6667;52.634;9.226;2022-09-12T15:13:47;2.28;;;1.50;;
13204;SDS011;6667;52.634;9.226;2022-09-12T15:16:14;2.00;;;1.50;;
13204;SDS011;6667;52.634;9.226;2022-09-12T15:18:41;1.88;;;1.55;;
13204;SDS011;6667;52.634;9.226;2022-09-12T15:21:11;2.45;;;1.70;;
13204;SDS011;6667;52.634;9.226;2022-09-12T15:23:41;2.28;;;1.80;;
13204;SDS011;6667;52.634;9.226;2022-09-12T15:26:11;2.25;;;1.85;;
13204;SDS011;6667;52.634;9.226;2022-09-12T15:28:40;3.22;;;1.77;;
13204;SDS011;6667;52.634;9.226;2022-09-12T15:31:10;1.75;;;1.65;;
13204;SDS011;6667;52.634;9.226;2022-09-12T15:33:40;1.58;;;1.48;;
13204;SDS011;6667;52.634;9.226;2022-09-12T15:36:11;7.10;;;2.38;;
13204;SDS011;6667;52.634;9.226;2022-09-12T15:38:41;1.27;;;1.20;;
13204;SDS011;6667;52.634;9.226;2022-09-12T15:41:09;1.80;;;1.60;;
13204;SDS011;6667;52.634;9.226;2022-09-12T15:43:38;7.60;;;1.20;;
13204;SDS011;6667;52.634;9.226;2022-09-12T15:46:07;1.52;;;1.40;;
13204;SDS011;6667;52.634;9.226;2022-09-12T15:48:36;1.52;;;1.42;;
13204;SDS011;6667;52.634;9.226;2022-09-12T15:51:02;2.15;;;1.20;;
13204;SDS011;6667;52.634;9.226;2022-09-12T15:53:29;1.40;;;1.17;;
13204;SDS011;6667;52.634;9.226;2022-09-12T15:55:57;1.42;;;1.33;;
13204;SDS011;6667;52.634;9.226;2022-09-12T15:58:23;1.30;;;1.20;;
13204;SDS011;6667;52.634;9.226;2022-09-12T16:00:50;1.52;;;1.38;;
13204;SDS011;6667;52.634;9.226;2022-09-12T16:03:20;2.67;;;1.80;;
13204;SDS011;6667;52.634;9.226;2022-09-12T16:05:48;1.67;;;1.58;;
13204;SDS011;6667;52.634;9.226;2022-09-12T16:08:15;2.60;;;1.38;;
13204;SDS011;6667;52.634;9.226;2022-09-12T16:10:42;1.45;;;1.35;;
13204;SDS011;6667;52.634;9.226;2022-09-12T16:13:09;2.38;;;1.45;;
13204;SDS011;6667;52.634;9.226;2022-09-12T16:15:35;1.77;;;1.63;;
13204;SDS011;6667;52.634;9.226;2022-09-12T16:18:02;2.28;;;1.52;;
13204;SDS011;6667;52.634;9.226;2022-09-12T16:20:30;6.05;;;1.80;;
13204;SDS011;6667;52.634;9.226;2022-09-12T16:22:57;2.83;;;1.70;;
13204;SDS011;6667;52.634;9.226;2022-09-12T16:25:23;1.60;;;1.45;;
13204;SDS011;6667;52.634;9.226;2022-09-12T16:27:50;1.60;;;1.42;;
13204;SDS011;6667;52.634;9.226;2022-09-12T16:30:17;1.48;;;1.25;;
13204;SDS011;6667;52.634;9.226;2022-09-12T16:32:43;2.78;;;1.42;;
13204;SDS011;6667;52.634;9.226;2022-09-12T16:35:10;2.05;;;1.20;;
13204;SDS011;6667;52.634;9.226;2022-09-12T16:37:38;1.50;;;1.40;;
13204;SDS011;6667;52.634;9.226;2022-09-12T16:40:06;8.95;;;2.10;;
13204;SDS011;6667;52.634;9.226;2022-09-12T16:42:34;5.18;;;1.88;;
13204;SDS011;6667;52.634;9.226;2022-09-12T16:45:03;3.58;;;1.85;;
13204;SDS011;6667;52.634;9.226;2022-09-12T16:47:31;2.67;;;1.30;;
13204;SDS011;6667;52.634;9.226;2022-09-12T16:49:58;1.40;;;1.30;;
13204;SDS011;6667;52.634;9.226;2022-09-12T16:52:24;1.40;;;1.30;;
13204;SDS011;6667;52.634;9.226;2022-09-12T16:54:52;11.48;;;2.83;;
13204;SDS011;6667;52.634;9.226;2022-09-12T16:57:19;7.72;;;1.75;;
13204;SDS011;6667;52.634;9.226;2022-09-12T16:59:46;6.32;;;1.80;;
13204;SDS011;6667;52.634;9.226;2022-09-12T17:02:13;1.83;;;1.42;;
13204;SDS011;6667;52.634;9.226;2022-09-12T17:04:40;2.80;;;1.60;;
13204;SDS011;6667;52.634;9.226;2022-09-12T17:07:07;1.90;;;1.48;;
13204;SDS011;6667;52.634;9.226;2022-09-12T17:09:34;1.80;;;1.55;;
13204;SDS011;6667;52.634;9.226;2022-09-12T17:12:02;2.47;;;1.52;;
13204;SDS011;6667;52.634;9.226;2022-09-12T17:14:29;2.78;;;1.73;;
13204;SDS011;6667;52.634;9.226;2022-09-12T17:16:55;1.75;;;1.45;;
13204;SDS011;6667;52.634;9.226;2022-09-12T17:19:22;2.03;;;1.48;;
13204;SDS011;6667;52.634;9.226;2022-09-12T17:21:52;2.30;;;1.50;;
13204;SDS011;6667;52.634;9.226;2022-09-12T17:24:18;1.58;;;1.48;;
13204;SDS011;6667;52.634;9.226;2022-09-12T17:26:45;1.30;;;1.20;;
13204;SDS011;6667;52.634;9.226;2022-09-12T17:29:14;2.35;;;1.58;;
13204;SDS011;6667;52.634;9.226;2022-09-12T17:31:41;1.95;;;1.70;;
13204;SDS011;6667;52.634;9.226;2022-09-12T17:34:09;2.13;;;1.60;;
13204;SDS011;6667;52.634;9.226;2022-09-12T17:36:38;1.73;;;1.63;;
13204;SDS011;6667;52.634;9.226;2022-09-12T17:39:08;1.73;;;1.60;;
13204;SDS011;6667;52.634;9.226;2022-09-12T17:41:35;1.60;;;1.50;;
13204;SDS011;6667;52.634;9.226;2022-09-12T17:44:02;2.53;;;1.75;;
13204;SDS011;6667;52.634;9.226;2022-09-12T17:46:33;3.13;;;1.58;;
13204;SDS011;6667;52.634;9.226;2022-09-12T17:49:02;7.70;;;1.70;;
13204;SDS011;6667;52.634;9.226;2022-09-12T17:51:30;4.45;;;1.45;;
13204;SDS011;6667;52.634;9.226;2022-09-12T17:53:58;2.67;;;1.52;;
13204;SDS011;6667;52.634;9.226;2022-09-12T17:56:26;2.88;;;1.63;;
13204;SDS011;6667;52.634;9.226;2022-09-12T17:58:54;1.58;;;1.48;;
13204;SDS011;6667;52.634;9.226;2022-09-12T18:01:21;2.90;;;1.90;;
13204;SDS011;6667;52.634;9.226;2022-09-12T18:04:06;3.13;;;1.90;;
13204;SDS011;6667;52.634;9.226;2022-09-12T18:06:34;2.78;;;1.70;;
13204;SDS011;6667;52.634;9.226;2022-09-12T18:09:02;1.83;;;1.73;;
13204;SDS011;6667;52.634;9.226;2022-09-12T18:11:30;2.10;;;1.90;;
13204;SDS011;6667;52.634;9.226;2022-09-12T18:13:57;2.55;;;1.92;;
13204;SDS011;6667;52.634;9.226;2022-09-12T18:16:24;1.90;;;1.50;;
13204;SDS011;6667;52.634;9.226;2022-09-12T18:18:52;2.97;;;1.92;;
13204;SDS011;6667;52.634;9.226;2022-09-12T18:21:20;2.67;;;2.15;;
13204;SDS011;6667;52.634;9.226;2022-09-12T18:23:46;3.42;;;2.05;;
13204;SDS011;6667;52.634;9.226;2022-09-12T18:26:13;2.92;;;2.05;;
13204;SDS011;6667;52.634;9.226;2022-09-12T18:28:40;3.20;;;2.33;;
13204;SDS011;6667;52.634;9.226;2022-09-12T18:31:10;2.63;;;2.10;;
13204;SDS011;6667;52.634;9.226;2022-09-12T18:33:37;2.65;;;1.60;;
13204;SDS011;6667;52.634;9.226;2022-09-12T18:36:04;2.38;;;1.90;;
13204;SDS011;6667;52.634;9.226;2022-09-12T18:38:33;2.22;;;2.03;;
13204;SDS011;6667;52.634;9.226;2022-09-12T18:41:01;2.53;;;2.10;;
13204;SDS011;6667;52.634;9.226;2022-09-12T18:43:28;6.05;;;2.00;;
13204;SDS011;6667;52.634;9.226;2022-09-12T18:45:55;2.58;;;2.30;;
13204;SDS011;6667;52.634;9.226;2022-09-12T18:48:21;2.60;;;2.15;;
13204;SDS011;6667;52.634;9.226;2022-09-12T18:50:48;2.42;;;1.95;;
13204;SDS011;6667;52.634;9.226;2022-09-12T18:53:14;2.63;;;2.05;;
13204;SDS011;6667;52.634;9.226;2022-09-12T18:55:42;2.63;;;2.00;;
13204;SDS011;6667;52.634;9.226;2022-09-12T18:58:09;2.25;;;2.03;;
13204;SDS011;6667;52.634;9.226;2022-09-12T19:00:35;2.55;;;2.20;;
13204;SDS011;6667;52.634;9.226;2022-09-12T19:03:04;3.55;;;2.20;;
13204;SDS011;6667;52.634;9.226;2022-09-12T19:05:31;2.25;;;2.05;;
13204;SDS011;6667;52.634;9.226;2022-09-12T19:07:59;2.47;;;2.10;;
13204;SDS011;6667;52.634;9.226;2022-09-12T19:10:26;4.20;;;2.65;;
13204;SDS011;6667;52.634;9.226;2022-09-12T19:12:54;3.10;;;2.15;;
13204;SDS011;6667;52.634;9.226;2022-09-12T19:15:21;3.22;;;2.08;;
13204;SDS011;6667;52.634;9.226;2022-09-12T19:17:48;2.28;;;2.00;;
13204;SDS011;6667;52.634;9.226;2022-09-12T19:20:15;3.13;;;2.40;;
13204;SDS011;6667;52.634;9.226;2022-09-12T19:22:42;2.50;;;2.10;;
13204;SDS011;6667;52.634;9.226;2022-09-12T19:25:08;1.90;;;1.80;;
13204;SDS011;6667;52.634;9.226;2022-09-12T19:27:35;4.00;;;2.40;;
13204;SDS011;6667;52.634;9.226;2022-09-12T19:30:03;2.30;;;2.10;;
13204;SDS011;6667;52.634;9.226;2022-09-12T19:32:30;3.83;;;2.05;;
13204;SDS011;6667;52.634;9.226;2022-09-12T19:34:57;2.72;;;2.28;;
13204;SDS011;6667;52.634;9.226;2022-09-12T19:37:24;2.30;;;2.10;;
13204;SDS011;6667;52.634;9.226;2022-09-12T19:39:50;2.35;;;2.05;;
13204;SDS011;6667;52.634;9.226;2022-09-12T19:42:17;2.78;;;2.00;;
13204;SDS011;6667;52.634;9.226;2022-09-12T19:44:43;2.60;;;2.28;;
13204;SDS011;6667;52.634;9.226;2022-09-12T19:47:11;5.22;;;2.50;;
13204;SDS011;6667;52.634;9.226;2022-09-12T19:49:38;2.60;;;2.40;;
13204;SDS011;6667;52.634;9.226;2022-09-12T19:52:05;2.90;;;2.58;;
13204;SDS011;6667;52.634;9.226;2022-09-12T19:54:31;7.28;;;3.03;;
13204;SDS011;6667;52.634;9.226;2022-09-12T19:56:58;4.13;;;2.00;;
13204;SDS011;6667;52.634;9.226;2022-09-12T19:59:25;3.03;;;2.35;;
13204;SDS011;6667;52.634;9.226;2022-09-12T20:01:51;2.50;;;2.30;;
13204;SDS011;6667;52.634;9.226;2022-09-12T20:04:19;3.30;;;2.73;;
13204;SDS011;6667;52.634;9.226;2022-09-12T20:06:46;7.53;;;2.63;;
13204;SDS011;6667;52.634;9.226;2022-09-12T20:09:12;4.43;;;2.33;;
13204;SDS011;6667;52.634;9.226;2022-09-12T20:11:39;3.87;;;2.80;;
13204;SDS011;6667;52.634;9.226;2022-09-12T20:14:06;2.77;;;2.57;;
13204;SDS011;6667;52.634;9.226;2022-09-12T20:16:32;2.45;;;2.25;;
13204;SDS011;6667;52.634;9.226;2022-09-12T20:18:59;2.77;;;2.47;;
13204;SDS011;6667;52.634;9.226;2022-09-12T20:21:31;3.10;;;2.20;;
13204;SDS011;6667;52.634;9.226;2022-09-12T20:24:00;3.97;;;2.43;;
13204;SDS011;6667;52.634;9.226;2022-09-12T20:26:27;3.03;;;2.47;;
13204;SDS011;6667;52.634;9.226;2022-09-12T20:28:54;3.87;;;2.90;;
13204;SDS011;6667;52.634;9.226;2022-09-12T20:31:21;3.50;;;2.77;;
13204;SDS011;6667;52.634;9.226;2022-09-12T20:33:48;2.90;;;2.60;;
13204;SDS011;6667;52.634;9.226;2022-09-12T20:36:15;5.03;;;3.03;;
13204;SDS011;6667;52.634;9.226;2022-09-12T20:38:46;2.50;;;2.30;;
13204;SDS011;6667;52.634;9.226;2022-09-12T20:41:14;3.00;;;2.70;;
13204;SDS011;6667;52.634;9.226;2022-09-12T20:43:41;3.92;;;3.17;;
13204;SDS011;6667;52.634;9.226;2022-09-12T20:46:09;3.10;;;2.80;;
13204;SDS011;6667;52.634;9.226;2022-09-12T20:48:36;3.30;;;2.73;;
13204;SDS011;6667;52.634;9.226;2022-09-12T20:51:03;4.00;;;3.00;;
13204;SDS011;6667;52.634;9.226;2022-09-12T20:53:31;5.10;;;2.63;;
13204;SDS011;6667;52.634;9.226;2022-09-12T20:55:59;3.73;;;2.83;;
13204;SDS011;6667;52.634;9.226;2022-09-12T20:58:25;4.90;;;3.20;;
13204;SDS011;6667;52.634;9.226;2022-09-12T21:00:52;3.33;;;2.70;;
13204;SDS011;6667;52.634;9.226;2022-09-12T21:03:19;3.38;;;2.50;;
13204;SDS011;6667;52.634;9.226;2022-09-12T21:05:46;4.55;;;2.97;;
13204;SDS011;6667;52.634;9.226;2022-09-12T21:08:13;3.60;;;2.83;;
13204;SDS011;6667;52.634;9.226;2022-09-12T21:10:40;4.23;;;2.87;;
13204;SDS011;6667;52.634;9.226;2022-09-12T21:13:09;3.40;;;2.90;;
13204;SDS011;6667;52.634;9.226;2022-09-12T21:15:36;4.30;;;3.10;;
13204;SDS011;6667;52.634;9.226;2022-09-12T21:18:02;3.23;;;2.93;;
13204;SDS011;6667;52.634;9.226;2022-09-12T21:20:29;5.30;;;3.10;;
